»·PEaware :: N272H KSBP-KDLO

N272H :: KSBP-KDLO

FLIGHT INFORMATION

Flight Status: Arrived
Operator: Privately registered:
United States
More flights under this callsign
Pilot: Paul K. (16555)
Aircraft: PIPER PA-30 TWIN COMANCHE
(PA30)
More flights by this aircraft type
Origin: KSBP San Luis Co Regl
United States
Destination: KDLO Delano Mun
United States
More flights between these airports :: More routes between these airports
Route:
File this flight plan on PilotEdge
Remarks:
Altitude:
(Current/Filed)
11,500ft
Speed:
(Current/Filed)
160kts
Departed: 03-Sep-17 07:28 PM
Arrived: 03-Sep-17 08:15 PM
Distance/Time
Traveled:
75nm/0:47
Distance/Time
To Go:
Arrived

Flight Plot

Page will automatically refresh every two minutes.

Flight plan parsing failed; only flown route is shown


Map Options




Map Legend


Flown Route
Filed Route
Departure Airport
Arrival Airport
Navaid (VOR, NDB)
Fix

Horizontal Profiles

Position Reports

Time Latitude Longitude Heading Altitude Ground
Speed
03-Sep-17 19:13 35.237885 -120.647240 262 214ft 0kts
03-Sep-17 19:14 35.237885 -120.647240 262 214ft 0kts
03-Sep-17 19:15 35.237885 -120.647241 261 214ft 0kts
03-Sep-17 19:16 35.237885 -120.647240 262 214ft 0kts
03-Sep-17 19:17 35.237885 -120.647240 262 214ft 0kts
03-Sep-17 19:18 35.237885 -120.647240 262 214ft 0kts
03-Sep-17 19:19 35.237885 -120.647240 262 214ft 0kts
03-Sep-17 19:20 35.237885 -120.647240 262 214ft 0kts
03-Sep-17 19:21 35.237885 -120.647240 262 214ft 0kts
03-Sep-17 19:22 35.237885 -120.647240 262 214ft 0kts
03-Sep-17 19:23 35.237885 -120.647240 262 214ft 0kts
03-Sep-17 19:24 35.237885 -120.647240 262 214ft 0kts
03-Sep-17 19:25 35.237885 -120.647240 262 214ft 0kts
03-Sep-17 19:26 35.237850 -120.647378 234 214ft 5kts
03-Sep-17 19:27 35.237435 -120.644204 91 213ft 11kts
03-Sep-17 19:28 35.237395 -120.642845 130 213ft 0kts
03-Sep-17 19:29 35.237395 -120.642845 130 213ft 0kts
03-Sep-17 19:30 35.237395 -120.642845 130 213ft 0kts
03-Sep-17 19:31 35.237377 -120.642820 130 213ft 2kts
03-Sep-17 19:32 35.236840 -120.646624 271 214ft 74kts
03-Sep-17 19:33 35.247308 -120.665861 13 1160ft 108kts
03-Sep-17 19:34 35.266508 -120.640978 63 1899ft 114kts
03-Sep-17 19:35 35.272760 -120.604176 80 3412ft 108kts
03-Sep-17 19:36 35.273079 -120.566978 97 4789ft 104kts
03-Sep-17 19:37 35.267479 -120.534177 91 6096ft 103kts
03-Sep-17 19:38 35.259311 -120.496117 104 6785ft 133kts
03-Sep-17 19:39 35.263603 -120.463717 80 8131ft 100kts
03-Sep-17 19:40 35.263552 -120.429031 83 9165ft 94kts
03-Sep-17 19:41 35.262511 -120.397599 83 10181ft 89kts
03-Sep-17 19:42 35.263068 -120.366828 76 11087ft 95kts
03-Sep-17 19:43 35.265549 -120.339895 83 11572ft 112kts
03-Sep-17 19:44 35.266423 -120.301733 83 11518ft 141kts
03-Sep-17 19:45 35.267933 -120.252206 83 11530ft 149kts
03-Sep-17 19:46 35.269554 -120.201345 83 11526ft 150kts
03-Sep-17 19:47 35.272206 -120.150781 83 11525ft 149kts
03-Sep-17 19:48 35.296621 -120.120238 356 11523ft 153kts
03-Sep-17 19:49 35.309549 -120.085685 82 11475ft 150kts
03-Sep-17 19:50 35.303255 -120.051966 99 11448ft 152kts
03-Sep-17 19:52 35.282621 -119.944631 83 11560ft 150kts
03-Sep-17 19:53 35.284696 -119.898510 81 11513ft 150kts
03-Sep-17 19:54 35.287266 -119.859664 81 11516ft 148kts
03-Sep-17 19:55 35.290634 -119.809832 81 11520ft 147kts
03-Sep-17 19:56 35.295183 -119.752562 81 11521ft 146kts
03-Sep-17 19:57 35.299100 -119.703395 81 11518ft 146kts
03-Sep-17 19:58 35.302415 -119.662260 81 11515ft 146kts
03-Sep-17 19:59 35.306425 -119.612997 81 11511ft 146kts
03-Sep-17 20:00 35.311582 -119.556076 73 11506ft 145kts
03-Sep-17 20:01 35.335878 -119.530540 30 11485ft 146kts
03-Sep-17 20:02 35.373257 -119.499833 35 10611ft 171kts
03-Sep-17 20:03 35.415960 -119.472965 35 9749ft 175kts
03-Sep-17 20:04 35.455473 -119.443376 35 9463ft 160kts
03-Sep-17 20:05 35.493378 -119.415263 34 9225ft 159kts
03-Sep-17 20:06 35.532314 -119.389531 27 8983ft 161kts
03-Sep-17 20:07 35.574317 -119.369504 25 8749ft 162kts
03-Sep-17 20:08 35.614304 -119.346295 32 8522ft 161kts
03-Sep-17 20:09 35.648805 -119.322736 40 8045ft 164kts
03-Sep-17 20:10 35.682571 -119.288915 39 6405ft 167kts
03-Sep-17 20:11 35.687972 -119.254232 172 5432ft 145kts
03-Sep-17 20:12 35.687661 -119.295349 342 4183ft 175kts
03-Sep-17 20:13 35.723235 -119.262476 76 2372ft 159kts
03-Sep-17 20:14 35.705095 -119.265233 314 1801ft 135kts
03-Sep-17 20:15 35.734667 -119.254233 25 1581ft 111kts
03-Sep-17 20:16 35.764492 -119.265776 335 1943ft 118kts
03-Sep-17 20:17 35.775677 -119.250981 151 1140ft 79kts
03-Sep-17 20:18 35.756688 -119.241859 158 547ft 72kts
03-Sep-17 20:19 35.742023 -119.234835 157 315ft 32kts
03-Sep-17 20:20 35.738853 -119.234657 295 314ft 6kts
03-Sep-17 20:21 35.742511 -119.236762 336 315ft 21kts
03-Sep-17 20:22 35.744254 -119.238271 249 315ft 3kts
03-Sep-17 20:23 35.744372 -119.238296 68 315ft 0kts
03-Sep-17 20:24 35.744372 -119.238296 68 315ft 0kts
03-Sep-17 20:25 35.744372 -119.238296 68 315ft 0kts
03-Sep-17 20:26 35.744372 -119.238296 68 315ft 0kts
03-Sep-17 20:27 35.744372 -119.238296 68 315ft 0kts
03-Sep-17 20:28 35.744372 -119.238296 68 315ft 0kts
03-Sep-17 20:29 35.744372 -119.238296 68 315ft 0kts
03-Sep-17 20:30 35.744372 -119.238296 68 315ft 0kts

Navigation Log

Ident Type
Flight plan parsing failed, navigation log unavailable